createdAt,value
2023-04-23T00:00:19.709Z,1004.63
2023-04-23T00:01:19.733Z,1004.62
2023-04-23T00:02:19.952Z,1004.62
2023-04-23T00:03:20.252Z,1004.62
2023-04-23T00:04:19.950Z,1004.61
2023-04-23T00:05:19.911Z,1004.59
2023-04-23T00:06:19.975Z,1004.60
2023-04-23T00:08:19.949Z,1004.64
2023-04-23T00:09:20.023Z,1004.59
2023-04-23T00:10:20.285Z,1004.60
2023-04-23T00:11:20.114Z,1004.60
2023-04-23T00:12:20.032Z,1004.58
2023-04-23T00:13:20.059Z,1004.58
2023-04-23T00:14:20.092Z,1004.54
2023-04-23T00:15:20.119Z,1004.59
2023-04-23T00:16:20.180Z,1004.53
2023-04-23T00:17:20.490Z,1004.56
2023-04-23T00:18:20.502Z,1004.58
2023-04-23T00:19:20.250Z,1004.56
2023-04-23T00:21:20.313Z,1004.56
2023-04-23T00:22:20.316Z,1004.55
2023-04-23T00:23:20.638Z,1004.54
2023-04-23T00:24:20.371Z,1004.52
2023-04-23T00:25:20.401Z,1004.52
2023-04-23T00:26:20.433Z,1004.58
2023-04-23T00:27:20.450Z,1004.55
2023-04-23T00:28:22.270Z,1004.58
2023-04-23T00:29:20.824Z,1004.57
2023-04-23T00:30:20.557Z,1004.61
2023-04-23T00:31:20.602Z,1004.61
2023-04-23T00:32:20.626Z,1004.57
2023-04-23T00:33:20.629Z,1004.59
2023-04-23T00:34:20.645Z,1004.56
2023-04-23T00:36:21.037Z,1004.55
2023-04-23T00:39:20.787Z,1004.52
2023-04-23T00:40:20.824Z,1004.53
2023-04-23T00:41:20.851Z,1004.51
2023-04-23T00:42:21.168Z,1004.50
2023-04-23T00:43:20.954Z,1004.50
2023-04-23T00:44:20.935Z,1004.52
2023-04-23T00:45:20.948Z,1004.45
2023-04-23T00:46:21.016Z,1004.44
2023-04-23T00:47:21.015Z,1004.41
2023-04-23T00:50:21.420Z,1004.39
2023-04-23T00:51:21.118Z,1004.40
2023-04-23T00:52:21.165Z,1004.35
2023-04-23T00:53:21.168Z,1004.34
2023-04-23T00:55:21.391Z,1004.35
2023-04-23T00:56:21.251Z,1004.32
2023-04-23T00:57:21.585Z,1004.33
2023-04-23T00:58:21.316Z,1004.32
2023-04-23T00:59:21.337Z,1004.30
2023-04-23T01:00:21.364Z,1004.31
2023-04-23T01:01:21.427Z,1004.32
2023-04-23T01:02:21.499Z,1004.34
2023-04-23T01:03:21.724Z,1004.35
2023-04-23T01:04:21.976Z,1004.32
2023-04-23T01:05:21.514Z,1004.32
2023-04-23T01:07:21.561Z,1004.37
2023-04-23T01:08:21.640Z,1004.36
2023-04-23T01:09:21.614Z,1004.35
2023-04-23T01:10:21.652Z,1004.36
2023-04-23T01:11:21.983Z,1004.35
2023-04-23T01:12:21.705Z,1004.30
2023-04-23T01:13:21.731Z,1004.32
2023-04-23T01:14:21.751Z,1004.32
2023-04-23T01:15:21.799Z,1004.32
2023-04-23T01:16:21.834Z,1004.31
2023-04-23T01:17:22.165Z,1004.30
2023-04-23T01:18:22.121Z,1004.30
2023-04-23T01:19:21.903Z,1004.28
2023-04-23T01:20:21.924Z,1004.26
2023-04-23T01:21:21.960Z,1004.24
2023-04-23T01:22:21.986Z,1004.27
2023-04-23T01:23:22.018Z,1004.23
2023-04-23T01:26:22.406Z,1004.29
2023-04-23T01:27:22.115Z,1004.28
2023-04-23T01:28:22.146Z,1004.27
2023-04-23T01:29:22.186Z,1004.26
2023-04-23T01:30:22.222Z,1004.26
2023-04-23T01:31:22.274Z,1004.22
2023-04-23T01:32:22.274Z,1004.28
2023-04-23T01:33:22.581Z,1004.25
2023-04-23T01:34:22.310Z,1004.24
2023-04-23T01:35:22.343Z,1004.22
2023-04-23T01:37:22.397Z,1004.20
2023-04-23T01:38:22.418Z,1004.21
2023-04-23T01:39:22.455Z,1004.20
2023-04-23T01:40:22.793Z,1004.21
2023-04-23T01:41:22.510Z,1004.18
2023-04-23T01:42:22.600Z,1004.19
2023-04-23T01:43:22.595Z,1004.21
2023-04-23T01:44:22.612Z,1004.16
2023-04-23T01:45:22.616Z,1004.15
2023-04-23T01:46:22.754Z,1004.18
2023-04-23T01:47:23.026Z,1004.22
2023-04-23T01:48:22.695Z,1004.20
2023-04-23T01:49:22.732Z,1004.20
2023-04-23T01:50:22.764Z,1004.20
2023-04-23T01:52:22.807Z,1004.20
2023-04-23T01:53:22.832Z,1004.21
2023-04-23T01:54:23.160Z,1004.21
2023-04-23T01:56:22.921Z,1004.21
2023-04-23T01:57:22.952Z,1004.25
2023-04-23T01:58:22.991Z,1004.23
2023-04-23T01:59:23.018Z,1004.20
2023-04-23T02:00:23.024Z,1004.20
2023-04-23T02:01:23.452Z,1004.23
2023-04-23T02:02:23.173Z,1004.22
2023-04-23T02:03:23.237Z,1004.25
2023-04-23T02:04:23.191Z,1004.24
2023-04-23T02:05:23.169Z,1004.23
2023-04-23T02:06:23.288Z,1004.27
2023-04-23T02:07:23.228Z,1004.27
2023-04-23T02:08:23.552Z,1004.23
2023-04-23T02:09:23.278Z,1004.26
2023-04-23T02:10:23.308Z,1004.25
2023-04-23T02:11:23.329Z,1004.27
2023-04-23T02:12:23.392Z,1004.25
2023-04-23T02:13:23.413Z,1004.26
2023-04-23T02:14:23.560Z,1004.26
2023-04-23T02:15:23.746Z,1004.22
2023-04-23T02:16:23.535Z,1004.22
2023-04-23T02:17:23.531Z,1004.19
2023-04-23T02:18:23.531Z,1004.28
2023-04-23T02:19:23.554Z,1004.24
2023-04-23T02:20:23.579Z,1004.26
2023-04-23T02:21:23.613Z,1004.28
2023-04-23T02:22:23.942Z,1004.27
2023-04-23T02:23:23.666Z,1004.25
2023-04-23T02:24:23.692Z,1004.26
2023-04-23T02:25:23.733Z,1004.25
2023-04-23T02:26:23.756Z,1004.23
2023-04-23T02:27:23.778Z,1004.21
2023-04-23T02:28:24.104Z,1004.21
2023-04-23T02:29:24.134Z,1004.23
2023-04-23T02:30:23.878Z,1004.21
2023-04-23T02:31:23.919Z,1004.15
2023-04-23T02:32:23.977Z,1004.15
2023-04-23T02:35:24.311Z,1004.16
2023-04-23T02:36:24.026Z,1004.13
2023-04-23T02:37:24.063Z,1004.12
2023-04-23T02:38:24.084Z,1004.08
2023-04-23T02:39:24.115Z,1004.08
2023-04-23T02:40:24.138Z,1004.14
2023-04-23T02:41:24.170Z,1004.10
2023-04-23T02:42:24.491Z,1004.08
2023-04-23T02:43:24.231Z,1004.06
2023-04-23T02:44:24.295Z,1004.04
2023-04-23T02:45:24.286Z,1004.03
2023-04-23T02:46:24.354Z,1004.04
2023-04-23T02:47:24.442Z,1003.98
2023-04-23T02:48:24.663Z,1004.04
2023-04-23T02:49:24.384Z,1004.04
2023-04-23T02:50:24.408Z,1004.04
2023-04-23T02:51:24.444Z,1004.04
2023-04-23T02:52:24.469Z,1004.04
2023-04-23T02:53:24.503Z,1004.04
2023-04-23T02:54:24.829Z,1004.05
2023-04-23T02:55:24.550Z,1004.08
2023-04-23T02:56:24.582Z,1004.06
2023-04-23T02:57:24.618Z,1004.02
2023-04-23T02:58:24.646Z,1004.06
2023-04-23T02:59:24.665Z,1004.02
2023-04-23T03:01:25.132Z,1004.01
2023-04-23T03:02:25.024Z,1004.03
2023-04-23T03:03:24.823Z,1004.07
2023-04-23T03:04:24.802Z,1004.09
2023-04-23T03:05:24.927Z,1004.08
2023-04-23T03:06:24.869Z,1004.03
2023-04-23T03:07:25.282Z,1004.02
2023-04-23T03:08:24.906Z,1003.98
2023-04-23T03:09:24.945Z,1004.01
2023-04-23T03:10:24.962Z,1003.99
2023-04-23T03:11:24.990Z,1003.95
2023-04-23T03:12:25.031Z,1003.93
2023-04-23T03:13:25.045Z,1003.91
2023-04-23T03:14:25.456Z,1003.93
2023-04-23T03:15:25.221Z,1003.89
2023-04-23T03:16:25.170Z,1003.89
2023-04-23T03:17:25.170Z,1003.88
2023-04-23T03:18:25.198Z,1003.85
2023-04-23T03:19:25.211Z,1003.86
2023-04-23T03:20:25.243Z,1003.86
2023-04-23T03:21:25.566Z,1003.86
2023-04-23T03:22:25.295Z,1003.84
2023-04-23T03:23:25.319Z,1003.87
2023-04-23T03:25:25.386Z,1003.87
2023-04-23T03:26:25.399Z,1003.86
2023-04-23T03:28:25.909Z,1003.89
2023-04-23T03:29:25.484Z,1003.90
2023-04-23T03:30:25.512Z,1003.88
2023-04-23T03:31:25.539Z,1003.88
2023-04-23T03:32:25.602Z,1003.88
2023-04-23T03:33:25.596Z,1003.90
2023-04-23T03:34:25.691Z,1003.88
2023-04-23T03:35:25.955Z,1003.88
2023-04-23T03:36:25.677Z,1003.86
2023-04-23T03:37:25.709Z,1003.82
2023-04-23T03:38:25.731Z,1003.82
2023-04-23T03:39:25.865Z,1003.79
2023-04-23T03:40:25.790Z,1003.82
2023-04-23T03:41:25.816Z,1003.79
2023-04-23T03:42:26.144Z,1003.79
2023-04-23T03:43:25.877Z,1003.76
2023-04-23T03:44:25.898Z,1003.80
2023-04-23T03:45:25.924Z,1003.77
2023-04-23T03:46:25.977Z,1003.79
2023-04-23T03:47:26.102Z,1003.78
2023-04-23T03:48:26.013Z,1003.76
2023-04-23T03:50:26.405Z,1003.76
2023-04-23T03:51:26.098Z,1003.78
2023-04-23T03:52:26.126Z,1003.79
2023-04-23T03:55:26.205Z,1003.80
2023-04-23T03:56:27.238Z,1003.81
2023-04-23T03:57:26.563Z,1003.80
2023-04-23T03:59:26.319Z,1003.81
2023-04-23T04:00:26.347Z,1003.80
2023-04-23T04:01:26.379Z,1003.82
2023-04-23T04:02:26.515Z,1003.83
2023-04-23T04:03:26.560Z,1003.82
2023-04-23T04:04:27.103Z,1003.83
2023-04-23T04:05:26.496Z,1003.78
2023-04-23T04:06:26.533Z,1003.80
2023-04-23T04:07:26.562Z,1003.82
2023-04-23T04:08:26.567Z,1003.75
2023-04-23T04:09:26.590Z,1003.75
2023-04-23T04:10:26.626Z,1003.78
2023-04-23T04:11:26.981Z,1003.80
2023-04-23T04:12:26.682Z,1003.77
2023-04-23T04:13:26.707Z,1003.72
2023-04-23T04:14:26.733Z,1003.78
2023-04-23T04:15:26.856Z,1003.78
2023-04-23T04:16:26.828Z,1003.73
2023-04-23T04:17:26.841Z,1003.77
2023-04-23T04:18:27.446Z,1003.79
2023-04-23T04:19:26.893Z,1003.78
2023-04-23T04:20:26.896Z,1003.75
2023-04-23T04:21:26.924Z,1003.77
2023-04-23T04:22:26.982Z,1003.75
2023-04-23T04:23:26.982Z,1003.74
2023-04-23T04:24:27.010Z,1003.73
2023-04-23T04:25:27.343Z,1003.76
2023-04-23T04:26:27.072Z,1003.76
2023-04-23T04:27:27.092Z,1003.69
2023-04-23T04:28:27.116Z,1003.70
2023-04-23T04:29:27.141Z,1003.71
2023-04-23T04:30:27.168Z,1003.73
2023-04-23T04:31:27.213Z,1003.74
2023-04-23T04:32:27.549Z,1003.67
2023-04-23T04:33:27.257Z,1003.65
2023-04-23T04:34:27.283Z,1003.61
2023-04-23T04:35:27.307Z,1003.64
2023-04-23T04:36:27.378Z,1003.64
2023-04-23T04:37:27.362Z,1003.63
2023-04-23T04:38:27.418Z,1003.65
2023-04-23T04:39:27.736Z,1003.66
2023-04-23T04:40:27.452Z,1003.66
2023-04-23T04:41:27.473Z,1003.65
2023-04-23T04:42:27.596Z,1003.64
2023-04-23T04:43:27.522Z,1003.69
2023-04-23T04:44:27.559Z,1003.68
2023-04-23T04:45:27.583Z,1003.70
2023-04-23T04:46:27.919Z,1003.70
2023-04-23T04:47:27.677Z,1003.68
2023-04-23T04:48:27.665Z,1003.70
2023-04-23T04:49:27.695Z,1003.72
2023-04-23T04:50:27.734Z,1003.76
2023-04-23T04:51:27.744Z,1003.77
2023-04-23T04:52:27.776Z,1003.77
2023-04-23T04:53:28.119Z,1003.77
2023-04-23T04:54:27.980Z,1003.80
2023-04-23T04:55:27.856Z,1003.81
2023-04-23T04:56:27.916Z,1003.77
2023-04-23T04:57:27.909Z,1003.81
2023-04-23T04:58:27.933Z,1003.78
2023-04-23T04:59:27.965Z,1003.80
2023-04-23T05:00:28.303Z,1003.81
2023-04-23T05:01:28.065Z,1003.81
2023-04-23T05:02:28.091Z,1003.76
2023-04-23T05:03:28.231Z,1003.77
2023-04-23T05:04:28.131Z,1003.80
2023-04-23T05:05:28.157Z,1003.80
2023-04-23T05:06:28.157Z,1003.76
2023-04-23T05:08:28.512Z,1003.76
2023-04-23T05:09:28.338Z,1003.79
2023-04-23T05:10:28.286Z,1003.81
2023-04-23T05:11:28.291Z,1003.78
2023-04-23T05:12:28.325Z,1003.80
2023-04-23T05:13:28.351Z,1003.79
2023-04-23T05:14:28.376Z,1003.80
2023-04-23T05:15:28.707Z,1003.76
2023-04-23T05:16:28.550Z,1003.80
2023-04-23T05:17:28.506Z,1003.78
2023-04-23T05:18:28.487Z,1003.78
2023-04-23T05:19:28.528Z,1003.80
2023-04-23T05:20:28.545Z,1003.81
2023-04-23T05:22:28.891Z,1003.81
2023-04-23T05:23:28.623Z,1003.82
2023-04-23T05:24:28.656Z,1003.82
2023-04-23T05:25:28.680Z,1003.85
2023-04-23T05:26:28.743Z,1003.81
2023-04-23T05:27:28.734Z,1003.83
2023-04-23T05:28:28.776Z,1003.85
2023-04-23T05:29:29.101Z,1003.83
2023-04-23T05:30:28.821Z,1003.81
2023-04-23T05:31:29.539Z,1003.82
2023-04-23T05:32:28.964Z,1003.87
2023-04-23T05:33:33.345Z,1003.84
2023-04-23T05:34:28.924Z,1003.84
2023-04-23T05:35:28.960Z,1003.80
2023-04-23T05:36:29.278Z,1003.84
2023-04-23T05:38:29.035Z,1003.80
2023-04-23T05:39:29.067Z,1003.81
2023-04-23T05:40:29.091Z,1003.80
2023-04-23T05:41:29.123Z,1003.80
2023-04-23T05:42:29.482Z,1003.82
2023-04-23T05:43:29.171Z,1003.81
2023-04-23T05:44:29.194Z,1003.82
2023-04-23T05:45:29.307Z,1003.84
2023-04-23T05:46:29.371Z,1003.83
2023-04-23T05:47:29.336Z,1003.85
2023-04-23T05:48:29.610Z,1003.87
2023-04-23T05:49:29.435Z,1003.87
2023-04-23T05:50:29.358Z,1003.90
2023-04-23T05:51:29.436Z,1003.89
2023-04-23T05:52:29.543Z,1003.91
2023-04-23T05:53:29.538Z,1003.90
2023-04-23T05:54:29.793Z,1003.90
2023-04-23T05:55:29.614Z,1003.93
2023-04-23T05:56:29.541Z,1003.93
2023-04-23T05:57:29.568Z,1003.92
2023-04-23T05:58:29.617Z,1003.91
2023-04-23T05:59:29.753Z,1003.92
2023-04-23T06:00:29.688Z,1003.91
2023-04-23T06:01:29.984Z,1003.90
2023-04-23T06:02:29.849Z,1003.89
2023-04-23T06:03:29.894Z,1003.91
2023-04-23T06:04:29.942Z,1003.88
2023-04-23T06:05:29.961Z,1003.86
2023-04-23T06:06:29.921Z,1003.88
2023-04-23T06:07:29.834Z,1003.87
2023-04-23T06:08:30.170Z,1003.87
2023-04-23T06:09:29.938Z,1003.86
2023-04-23T06:10:29.951Z,1003.84
2023-04-23T06:11:29.959Z,1003.89
2023-04-23T06:12:29.974Z,1003.84
2023-04-23T06:13:29.996Z,1003.86
2023-04-23T06:14:30.152Z,1003.83
2023-04-23T06:15:30.400Z,1003.82
2023-04-23T06:16:30.152Z,1003.82
2023-04-23T06:17:30.137Z,1003.82
2023-04-23T06:19:30.174Z,1003.81
2023-04-23T06:20:30.199Z,1003.82
2023-04-23T06:21:30.217Z,1003.79
2023-04-23T06:22:30.564Z,1003.82
2023-04-23T06:23:30.374Z,1003.80
2023-04-23T06:24:30.332Z,1003.79
2023-04-23T06:25:30.358Z,1003.76
2023-04-23T06:26:32.214Z,1003.77
2023-04-23T06:27:30.387Z,1003.81
2023-04-23T06:28:30.418Z,1003.80
2023-04-23T06:29:30.763Z,1003.83
2023-04-23T06:30:30.499Z,1003.82
2023-04-23T06:31:30.532Z,1003.82
2023-04-23T06:32:30.546Z,1003.83
2023-04-23T06:33:30.562Z,1003.83
2023-04-23T06:34:30.576Z,1003.85
2023-04-23T06:35:30.601Z,1003.85
2023-04-23T06:36:30.938Z,1003.82
2023-04-23T06:37:30.674Z,1003.83
2023-04-23T06:38:30.685Z,1003.82
2023-04-23T06:40:30.746Z,1003.84
2023-04-23T06:41:30.788Z,1003.81
2023-04-23T06:42:30.818Z,1003.85
2023-04-23T06:43:31.129Z,1003.86
2023-04-23T06:44:30.855Z,1003.85
2023-04-23T06:45:30.951Z,1003.87
2023-04-23T06:46:31.079Z,1003.88
2023-04-23T06:47:30.936Z,1003.91
2023-04-23T06:48:30.964Z,1003.90
2023-04-23T06:50:31.329Z,1003.88
2023-04-23T06:51:31.233Z,1003.86
2023-04-23T06:53:31.101Z,1003.84
2023-04-23T06:54:31.139Z,1003.83
2023-04-23T06:55:31.176Z,1003.84
2023-04-23T06:56:31.190Z,1003.79
2023-04-23T06:57:31.540Z,1003.72
2023-04-23T06:58:31.284Z,1003.75
2023-04-23T06:59:31.274Z,1003.72
2023-04-23T07:00:31.297Z,1003.74
2023-04-23T07:01:31.327Z,1003.70
2023-04-23T07:05:31.776Z,1003.69
2023-04-23T07:06:31.475Z,1003.64
2023-04-23T07:07:31.616Z,1003.66
2023-04-23T07:09:31.591Z,1003.64
2023-04-23T07:10:31.594Z,1003.64
2023-04-23T07:11:31.624Z,1003.66
2023-04-23T07:12:31.903Z,1003.63
2023-04-23T07:13:31.685Z,1003.67
2023-04-23T07:15:31.837Z,1003.63
2023-04-23T07:16:31.773Z,1003.65
2023-04-23T07:17:31.819Z,1003.61
2023-04-23T07:19:32.158Z,1003.62
2023-04-23T07:20:31.888Z,1003.63
2023-04-23T07:21:31.933Z,1003.61
2023-04-23T07:22:31.936Z,1003.59
2023-04-23T07:23:31.975Z,1003.59
2023-04-23T07:24:32.000Z,1003.60
2023-04-23T07:25:32.034Z,1003.60
2023-04-23T07:26:32.352Z,1003.58
2023-04-23T07:27:32.082Z,1003.57
2023-04-23T07:28:32.154Z,1003.55
2023-04-23T07:29:32.143Z,1003.53
2023-04-23T07:30:32.169Z,1003.53
2023-04-23T07:31:32.284Z,1003.54
2023-04-23T07:32:32.250Z,1003.55
2023-04-23T07:33:32.549Z,1003.53
2023-04-23T07:34:32.290Z,1003.49
2023-04-23T07:35:32.314Z,1003.50
2023-04-23T07:36:32.362Z,1003.46
2023-04-23T07:37:32.433Z,1003.48
2023-04-23T07:38:32.398Z,1003.52
2023-04-23T07:39:32.420Z,1003.50
2023-04-23T07:40:32.785Z,1003.45
2023-04-23T07:41:32.483Z,1003.45
2023-04-23T07:42:32.503Z,1003.46
2023-04-23T07:43:32.548Z,1003.44
2023-04-23T07:44:32.568Z,1003.45
2023-04-23T07:45:32.604Z,1003.45
2023-04-23T07:46:32.649Z,1003.44
2023-04-23T07:47:32.970Z,1003.44
2023-04-23T07:48:32.681Z,1003.39
2023-04-23T07:49:32.720Z,1003.34
2023-04-23T07:50:32.746Z,1003.29
2023-04-23T07:51:32.762Z,1003.30
2023-04-23T07:52:32.789Z,1003.26
2023-04-23T07:53:32.846Z,1003.25
2023-04-23T07:54:33.111Z,1003.29
2023-04-23T07:55:32.878Z,1003.25
2023-04-23T07:56:32.913Z,1003.19
2023-04-23T07:57:32.951Z,1003.24
2023-04-23T07:58:32.998Z,1003.24
2023-04-23T07:59:33.001Z,1003.28
2023-04-23T08:00:33.325Z,1003.27
2023-04-23T08:01:33.056Z,1003.29
2023-04-23T08:02:33.152Z,1003.29
2023-04-23T08:03:33.230Z,1003.35
2023-04-23T08:04:33.275Z,1003.35
2023-04-23T08:05:33.218Z,1003.41
2023-04-23T08:06:33.497Z,1003.44
2023-04-23T08:07:33.233Z,1003.43
2023-04-23T08:08:33.353Z,1003.40
2023-04-23T08:09:33.300Z,1003.43
2023-04-23T08:10:33.322Z,1003.36
2023-04-23T08:11:33.333Z,1003.35
2023-04-23T08:12:33.662Z,1003.40
2023-04-23T08:13:33.392Z,1003.36
2023-04-23T08:14:33.427Z,1003.33
2023-04-23T08:15:33.450Z,1003.30
2023-04-23T08:16:34.293Z,1003.32
2023-04-23T08:17:33.516Z,1003.28
2023-04-23T08:18:33.534Z,1003.26
2023-04-23T08:19:33.964Z,1003.25
2023-04-23T08:20:33.588Z,1003.29
2023-04-23T08:21:33.669Z,1003.25
2023-04-23T08:22:33.644Z,1003.21
2023-04-23T08:23:33.669Z,1003.23
2023-04-23T08:24:33.698Z,1003.25
2023-04-23T08:25:33.760Z,1003.22
2023-04-23T08:26:34.064Z,1003.21
2023-04-23T08:27:33.790Z,1003.21
2023-04-23T08:28:33.868Z,1003.23
2023-04-23T08:29:33.841Z,1003.21
2023-04-23T08:30:33.874Z,1003.22
2023-04-23T08:31:33.965Z,1003.21
2023-04-23T08:32:33.979Z,1003.21
2023-04-23T08:33:34.212Z,1003.25
2023-04-23T08:35:34.027Z,1003.26
2023-04-23T08:36:34.043Z,1003.29
2023-04-23T08:38:34.101Z,1003.25
2023-04-23T08:39:34.140Z,1003.25
2023-04-23T08:40:34.456Z,1003.21
2023-04-23T08:41:34.211Z,1003.20
2023-04-23T08:42:34.222Z,1003.20
2023-04-23T08:43:34.249Z,1003.21
2023-04-23T08:44:34.279Z,1003.18
2023-04-23T08:45:34.300Z,1003.20
2023-04-23T08:46:34.383Z,1003.18
2023-04-23T08:48:34.692Z,1003.22
2023-04-23T08:49:34.418Z,1003.22
2023-04-23T08:50:34.480Z,1003.17
2023-04-23T08:51:34.482Z,1003.16
2023-04-23T08:53:34.539Z,1003.07
2023-04-23T08:54:34.570Z,1003.08
2023-04-23T08:55:34.895Z,1003.09
2023-04-23T08:56:34.637Z,1003.07
2023-04-23T08:57:34.679Z,1003.05
2023-04-23T08:58:34.683Z,1003.06
2023-04-23T08:59:34.711Z,1003.03
2023-04-23T09:00:34.774Z,1003.04
2023-04-23T09:01:34.786Z,1003.01
2023-04-23T09:02:35.211Z,1003.02
2023-04-23T09:03:34.949Z,1002.98
2023-04-23T09:04:34.854Z,1003.01
2023-04-23T09:05:34.904Z,1002.98
2023-04-23T09:06:34.907Z,1002.99
2023-04-23T09:07:34.948Z,1003.03
2023-04-23T09:08:34.981Z,1002.89
2023-04-23T09:09:35.304Z,1002.96
2023-04-23T09:10:35.029Z,1002.99
2023-04-23T09:11:35.093Z,1002.96
2023-04-23T09:12:35.091Z,1002.95
2023-04-23T09:13:35.151Z,1002.94
2023-04-23T09:14:36.805Z,1002.92
2023-04-23T09:15:35.858Z,1002.91
2023-04-23T09:16:36.337Z,1002.90
2023-04-23T09:17:35.669Z,1002.91
2023-04-23T09:18:35.825Z,1002.93
2023-04-23T09:19:35.292Z,1002.94
2023-04-23T09:20:35.337Z,1002.91
2023-04-23T09:21:35.357Z,1002.94
2023-04-23T09:22:35.393Z,1002.93
2023-04-23T09:23:35.711Z,1002.90
2023-04-23T09:24:35.464Z,1002.85
2023-04-23T09:25:35.479Z,1002.98
2023-04-23T09:26:35.510Z,1002.97
2023-04-23T09:27:35.534Z,1002.90
2023-04-23T09:29:35.911Z,1002.84
2023-04-23T09:30:35.625Z,1002.87
2023-04-23T09:31:35.676Z,1002.89
2023-04-23T09:32:35.722Z,1002.80
2023-04-23T09:33:35.713Z,1002.79
2023-04-23T09:34:35.743Z,1002.81
2023-04-23T09:35:35.760Z,1002.82
2023-04-23T09:36:36.093Z,1002.80
2023-04-23T09:37:35.822Z,1002.79
2023-04-23T09:38:35.855Z,1002.75
2023-04-23T09:39:35.930Z,1002.72
2023-04-23T09:40:35.919Z,1002.70
2023-04-23T09:41:35.940Z,1002.71
2023-04-23T09:42:35.980Z,1002.69
2023-04-23T09:43:36.297Z,1002.64
2023-04-23T09:45:36.094Z,1002.63
2023-04-23T09:46:36.093Z,1002.64
2023-04-23T09:47:36.149Z,1002.58
2023-04-23T09:48:36.149Z,1002.59
2023-04-23T09:49:36.183Z,1002.64
2023-04-23T09:50:36.530Z,1002.58
2023-04-23T09:51:36.234Z,1002.64
2023-04-23T09:52:36.266Z,1002.61
2023-04-23T09:53:36.761Z,1002.57
2023-04-23T09:54:36.329Z,1002.55
2023-04-23T09:55:36.353Z,1002.61
2023-04-23T09:56:36.694Z,1002.65
2023-04-23T09:57:36.411Z,1002.66
2023-04-23T09:58:36.449Z,1002.66
2023-04-23T09:59:47.038Z,1002.63
2023-04-23T10:00:36.504Z,1002.59
2023-04-23T10:01:36.566Z,1002.57
2023-04-23T10:02:36.970Z,1002.54
2023-04-23T10:03:37.948Z,1002.57
2023-04-23T10:04:36.782Z,1002.53
2023-04-23T10:05:49.830Z,1002.54
2023-04-23T10:06:42.392Z,1002.54
2023-04-23T10:07:36.715Z,1002.49
2023-04-23T10:08:37.048Z,1002.52
2023-04-23T10:09:36.881Z,1002.49
2023-04-23T10:10:47.060Z,1002.49
2023-04-23T10:11:36.830Z,1002.49
2023-04-23T10:12:50.223Z,1002.55
2023-04-23T10:13:36.898Z,1002.50
2023-04-23T10:14:36.919Z,1002.52
2023-04-23T10:15:37.249Z,1002.54
2023-04-23T10:16:48.284Z,1002.60
2023-04-23T10:17:37.098Z,1002.59
2023-04-23T10:18:37.030Z,1002.64
2023-04-23T10:19:38.242Z,1002.59
2023-04-23T10:20:37.096Z,1002.63
2023-04-23T10:22:37.457Z,1002.56
2023-04-23T10:23:37.181Z,1002.52
2023-04-23T10:24:37.219Z,1002.59
2023-04-23T10:26:37.362Z,1002.57
2023-04-23T10:27:51.118Z,1002.57
2023-04-23T10:28:37.340Z,1002.62
2023-04-23T10:29:37.671Z,1002.60
2023-04-23T10:30:37.399Z,1002.51
2023-04-23T10:31:37.530Z,1002.50
2023-04-23T10:32:37.498Z,1002.50
2023-04-23T10:34:37.604Z,1002.41
2023-04-23T10:36:37.824Z,1002.47
2023-04-23T10:37:37.659Z,1002.45
2023-04-23T10:38:42.965Z,1002.47
2023-04-23T10:39:37.663Z,1002.47
2023-04-23T10:41:37.773Z,1002.46
2023-04-23T10:42:37.770Z,1002.40
2023-04-23T10:43:38.102Z,1002.35
2023-04-23T10:44:55.955Z,1002.34
2023-04-23T10:45:37.951Z,1002.34
2023-04-23T10:46:39.182Z,1002.23
2023-04-23T10:47:37.965Z,1002.25
2023-04-23T10:48:37.971Z,1002.31
2023-04-23T10:49:37.988Z,1002.31
2023-04-23T10:50:47.746Z,1002.29
2023-04-23T10:52:38.068Z,1002.24
2023-04-23T10:53:38.091Z,1002.24
2023-04-23T10:54:38.178Z,1002.27
2023-04-23T10:55:38.157Z,1002.35
2023-04-23T10:56:38.184Z,1002.38
2023-04-23T10:57:38.210Z,1002.43
2023-04-23T10:58:38.248Z,1002.49
2023-04-23T11:00:38.313Z,1002.47
2023-04-23T11:01:38.375Z,1002.39
2023-04-23T11:02:38.514Z,1002.29
2023-04-23T11:03:41.992Z,1002.26
2023-04-23T11:04:38.468Z,1002.25
2023-04-23T11:05:38.479Z,1002.24
2023-04-23T11:06:38.495Z,1002.27
2023-04-23T11:07:38.519Z,1002.27
2023-04-23T11:08:38.580Z,1002.25
2023-04-23T11:09:38.786Z,1002.24
2023-04-23T11:10:38.606Z,1002.14
2023-04-23T11:11:38.633Z,1002.15
2023-04-23T11:12:38.711Z,1002.10
2023-04-23T11:13:38.699Z,1002.00
2023-04-23T11:14:38.720Z,1002.01
2023-04-23T11:15:38.767Z,1001.99
2023-04-23T11:16:38.824Z,1001.94
2023-04-23T11:17:38.875Z,1001.92
2023-04-23T11:18:38.860Z,1001.90
2023-04-23T11:19:38.963Z,1001.89
2023-04-23T11:21:38.965Z,1001.84
2023-04-23T11:22:39.009Z,1001.84
2023-04-23T11:24:39.029Z,1001.88
2023-04-23T11:25:39.061Z,1001.86
2023-04-23T11:26:39.096Z,1001.83
2023-04-23T11:27:39.117Z,1001.87
2023-04-23T11:28:39.399Z,1001.87
2023-04-23T11:29:39.258Z,1001.87
2023-04-23T11:30:39.265Z,1001.92
2023-04-23T11:31:44.837Z,1001.99
2023-04-23T11:32:39.384Z,1002.07
2023-04-23T11:33:39.310Z,1002.02
2023-04-23T11:34:39.330Z,1002.01
2023-04-23T11:35:39.678Z,1001.94
2023-04-23T11:36:39.440Z,1001.99
2023-04-23T11:37:39.446Z,1001.93
2023-04-23T11:38:39.465Z,1001.96
2023-04-23T11:39:39.666Z,1001.87
2023-04-23T11:40:39.511Z,1001.82
2023-04-23T11:41:39.550Z,1001.80
2023-04-23T11:42:39.573Z,1001.74
2023-04-23T11:43:39.601Z,1001.71
2023-04-23T11:44:39.641Z,1001.70
2023-04-23T11:45:39.717Z,1001.68
2023-04-23T11:46:39.702Z,1001.65
2023-04-23T11:47:39.732Z,1001.72
2023-04-23T11:49:40.454Z,1001.70
2023-04-23T11:50:39.822Z,1001.71
2023-04-23T11:51:39.861Z,1001.69
2023-04-23T11:52:39.892Z,1001.69
2023-04-23T11:53:39.935Z,1001.63
2023-04-23T11:54:39.952Z,1001.67
2023-04-23T11:55:39.971Z,1001.71
2023-04-23T11:56:40.006Z,1001.65
2023-04-23T11:57:40.044Z,1001.67
2023-04-23T11:58:40.063Z,1001.68
2023-04-23T11:59:40.320Z,1001.71
2023-04-23T12:00:40.123Z,1001.68
2023-04-23T12:01:40.163Z,1001.65
2023-04-23T12:02:40.652Z,1001.61
2023-04-23T12:03:40.371Z,1001.59
2023-04-23T12:04:41.333Z,1001.58
2023-04-23T12:06:40.302Z,1001.54
2023-04-23T12:07:40.335Z,1001.55
2023-04-23T12:08:40.398Z,1001.50
2023-04-23T12:09:40.685Z,1001.50
2023-04-23T12:10:40.424Z,1001.42
2023-04-23T12:11:40.455Z,1001.34
2023-04-23T12:12:40.488Z,1001.24
2023-04-23T12:13:40.516Z,1001.21
2023-04-23T12:14:40.602Z,1001.18
2023-04-23T12:15:40.918Z,1001.17
2023-04-23T12:16:40.611Z,1001.12
2023-04-23T12:17:40.672Z,1001.06
2023-04-23T12:18:40.670Z,1001.00
2023-04-23T12:19:40.990Z,1001.02
2023-04-23T12:20:40.729Z,1000.92
2023-04-23T12:21:41.062Z,1000.97
2023-04-23T12:22:40.794Z,1000.91
2023-04-23T12:23:40.932Z,1000.91
2023-04-23T12:24:40.848Z,1000.91
2023-04-23T12:25:40.905Z,1000.92
2023-04-23T12:26:40.936Z,1000.88
2023-04-23T12:27:41.000Z,1000.84
2023-04-23T12:28:40.972Z,1000.86
2023-04-23T12:29:41.178Z,1000.82
2023-04-23T12:30:41.055Z,1000.84
2023-04-23T12:31:41.137Z,1000.78
2023-04-23T12:32:41.149Z,1000.84
2023-04-23T12:33:41.377Z,1000.87
2023-04-23T12:34:41.499Z,1000.85
2023-04-23T12:35:41.197Z,1000.86
2023-04-23T12:36:41.218Z,1000.94
2023-04-23T12:37:41.254Z,1000.95
2023-04-23T12:38:41.283Z,1000.94
2023-04-23T12:39:41.660Z,1000.98
2023-04-23T12:40:41.640Z,1000.98
2023-04-23T12:41:41.400Z,1000.98
2023-04-23T12:42:41.402Z,1000.99
2023-04-23T12:43:41.436Z,1000.95
2023-04-23T12:44:41.461Z,1000.93
2023-04-23T12:45:41.498Z,1000.94
2023-04-23T12:46:41.534Z,1000.92
2023-04-23T12:47:41.893Z,1000.93
2023-04-23T12:48:41.595Z,1000.92
2023-04-23T12:49:41.923Z,1000.92
2023-04-23T12:50:41.647Z,1000.89
2023-04-23T12:51:41.691Z,1000.90
2023-04-23T12:52:41.710Z,1000.90
2023-04-23T12:53:41.760Z,1000.89
2023-04-23T12:54:42.075Z,1000.94
2023-04-23T12:55:41.797Z,1000.90
2023-04-23T12:56:41.841Z,1000.92
2023-04-23T12:57:41.882Z,1000.82
2023-04-23T12:58:41.898Z,1000.81